sensor_id;sensor_type;location;lat;lon;timestamp;temperature;humidity
48454;DHT22;34261;55.678;12.464;2022-09-01T01:29:29;14.00;99.90
48454;DHT22;34261;55.678;12.464;2022-09-01T01:31:57;13.90;99.90
48454;DHT22;34261;55.678;12.464;2022-09-01T01:34:23;13.90;99.90
48454;DHT22;34261;55.678;12.464;2022-09-01T01:36:49;13.90;99.90
48454;DHT22;34261;55.678;12.464;2022-09-01T01:39:18;13.90;99.90
48454;DHT22;34261;55.678;12.464;2022-09-01T01:41:46;13.90;99.90
48454;DHT22;34261;55.678;12.464;2022-09-01T01:44:17;13.90;99.90
48454;DHT22;34261;55.678;12.464;2022-09-01T01:46:46;13.90;99.90
48454;DHT22;34261;55.678;12.464;2022-09-01T01:49:13;13.90;99.90
48454;DHT22;34261;55.678;12.464;2022-09-01T01:51:44;13.80;99.90
48454;DHT22;34261;55.678;12.464;2022-09-01T01:54:12;13.80;99.90
48454;DHT22;34261;55.678;12.464;2022-09-01T01:56:38;13.80;99.90
48454;DHT22;34261;55.678;12.464;2022-09-01T01:59:04;13.70;99.90
48454;DHT22;34261;55.678;12.464;2022-09-01T02:01:32;13.70;99.90
48454;DHT22;34261;55.678;12.464;2022-09-01T02:03:59;13.70;99.90
48454;DHT22;34261;55.678;12.464;2022-09-01T02:06:26;13.70;99.90
48454;DHT22;34261;55.678;12.464;2022-09-01T02:08:53;13.60;99.90
48454;DHT22;34261;55.678;12.464;2022-09-01T02:11:24;13.60;99.90
48454;DHT22;34261;55.678;12.464;2022-09-01T02:13:51;13.60;99.90
48454;DHT22;34261;55.678;12.464;2022-09-01T02:16:21;13.60;99.90
48454;DHT22;34261;55.678;12.464;2022-09-01T02:18:47;13.60;99.90
48454;DHT22;34261;55.678;12.464;2022-09-01T02:21:16;13.60;99.90
48454;DHT22;34261;55.678;12.464;2022-09-01T02:23:46;13.50;99.90
48454;DHT22;34261;55.678;12.464;2022-09-01T02:26:14;13.50;99.90
48454;DHT22;34261;55.678;12.464;2022-09-01T02:28:42;13.50;99.90
48454;DHT22;34261;55.678;12.464;2022-09-01T02:31:09;13.50;99.90
48454;DHT22;34261;55.678;12.464;2022-09-01T02:33:37;13.50;99.90
48454;DHT22;34261;55.678;12.464;2022-09-01T02:36:13;13.50;99.90
48454;DHT22;34261;55.678;12.464;2022-09-01T02:38:40;13.50;99.90
48454;DHT22;34261;55.678;12.464;2022-09-01T02:41:11;13.40;99.90
48454;DHT22;34261;55.678;12.464;2022-09-01T02:43:39;13.40;99.90
48454;DHT22;34261;55.678;12.464;2022-09-01T02:46:08;13.40;99.90
48454;DHT22;34261;55.678;12.464;2022-09-01T02:48:39;13.30;99.90
48454;DHT22;34261;55.678;12.464;2022-09-01T02:51:09;13.30;99.90
48454;DHT22;34261;55.678;12.464;2022-09-01T02:53:35;13.30;99.90
48454;DHT22;34261;55.678;12.464;2022-09-01T02:56:03;13.30;99.90
48454;DHT22;34261;55.678;12.464;2022-09-01T02:58:34;13.30;99.90
48454;DHT22;34261;55.678;12.464;2022-09-01T03:01:09;13.30;99.90
48454;DHT22;34261;55.678;12.464;2022-09-01T03:03:36;13.20;99.90
48454;DHT22;34261;55.678;12.464;2022-09-01T03:06:02;13.20;99.90
48454;DHT22;34261;55.678;12.464;2022-09-01T03:08:34;13.20;99.90
48454;DHT22;34261;55.678;12.464;2022-09-01T03:11:04;13.20;99.90
48454;DHT22;34261;55.678;12.464;2022-09-01T03:13:32;13.10;99.90
48454;DHT22;34261;55.678;12.464;2022-09-01T03:15:58;13.10;99.90
48454;DHT22;34261;55.678;12.464;2022-09-01T03:18:23;13.10;99.90
48454;DHT22;34261;55.678;12.464;2022-09-01T03:20:49;13.10;99.90
48454;DHT22;34261;55.678;12.464;2022-09-01T03:23:17;13.10;99.90
48454;DHT22;34261;55.678;12.464;2022-09-01T03:25:44;13.10;99.90
48454;DHT22;34261;55.678;12.464;2022-09-01T03:28:11;13.10;99.90
48454;DHT22;34261;55.678;12.464;2022-09-01T03:30:38;13.10;99.90
48454;DHT22;34261;55.678;12.464;2022-09-01T03:33:06;13.00;99.90
48454;DHT22;34261;55.678;12.464;2022-09-01T03:35:32;13.00;99.90
48454;DHT22;34261;55.678;12.464;2022-09-01T03:38:00;13.00;99.90
48454;DHT22;34261;55.678;12.464;2022-09-01T03:40:30;13.00;99.90
48454;DHT22;34261;55.678;12.464;2022-09-01T03:42:59;12.90;99.90
48454;DHT22;34261;55.678;12.464;2022-09-01T03:45:24;12.90;99.90
48454;DHT22;34261;55.678;12.464;2022-09-01T03:47:52;12.90;99.90
48454;DHT22;34261;55.678;12.464;2022-09-01T03:50:20;12.90;99.90
48454;DHT22;34261;55.678;12.464;2022-09-01T03:52:54;12.90;99.90
48454;DHT22;34261;55.678;12.464;2022-09-01T03:55:28;12.90;99.90
48454;DHT22;34261;55.678;12.464;2022-09-01T03:57:59;12.80;99.90
48454;DHT22;34261;55.678;12.464;2022-09-01T04:00:28;12.80;99.90
48454;DHT22;34261;55.678;12.464;2022-09-01T04:02:58;12.80;99.90
48454;DHT22;34261;55.678;12.464;2022-09-01T04:05:27;12.70;99.90
48454;DHT22;34261;55.678;12.464;2022-09-01T04:07:57;12.70;99.90
48454;DHT22;34261;55.678;12.464;2022-09-01T04:10:25;12.70;99.90
48454;DHT22;34261;55.678;12.464;2022-09-01T04:12:51;12.70;99.90
48454;DHT22;34261;55.678;12.464;2022-09-01T04:15:17;12.70;99.90
48454;DHT22;34261;55.678;12.464;2022-09-01T04:17:43;12.70;99.90
48454;DHT22;34261;55.678;12.464;2022-09-01T04:20:28;12.70;99.90
48454;DHT22;34261;55.678;12.464;2022-09-01T04:22:54;12.70;99.90
48454;DHT22;34261;55.678;12.464;2022-09-01T04:25:21;12.70;99.90
48454;DHT22;34261;55.678;12.464;2022-09-01T04:27:50;12.70;99.90
48454;DHT22;34261;55.678;12.464;2022-09-01T04:30:22;12.70;99.90
48454;DHT22;34261;55.678;12.464;2022-09-01T04:32:51;12.70;99.90
48454;DHT22;34261;55.678;12.464;2022-09-01T04:35:20;12.70;99.90
48454;DHT22;34261;55.678;12.464;2022-09-01T04:37:52;12.80;99.90
48454;DHT22;34261;55.678;12.464;2022-09-01T04:40:18;12.80;99.90
48454;DHT22;34261;55.678;12.464;2022-09-01T04:42:48;12.80;99.90
48454;DHT22;34261;55.678;12.464;2022-09-01T04:45:14;12.90;99.90
48454;DHT22;34261;55.678;12.464;2022-09-01T04:47:40;12.90;99.90
48454;DHT22;34261;55.678;12.464;2022-09-01T04:50:08;12.90;99.90
48454;DHT22;34261;55.678;12.464;2022-09-01T04:52:43;12.90;99.90
48454;DHT22;34261;55.678;12.464;2022-09-01T04:55:11;13.00;99.90
48454;DHT22;34261;55.678;12.464;2022-09-01T04:57:46;13.00;99.90
48454;DHT22;34261;55.678;12.464;2022-09-01T05:00:19;13.10;99.90
48454;DHT22;34261;55.678;12.464;2022-09-01T05:02:53;13.20;99.90
48454;DHT22;34261;55.678;12.464;2022-09-01T05:05:22;13.20;99.90
48454;DHT22;34261;55.678;12.464;2022-09-01T05:07:49;13.30;99.90
48454;DHT22;34261;55.678;12.464;2022-09-01T05:10:18;13.30;99.90
48454;DHT22;34261;55.678;12.464;2022-09-01T05:12:46;13.40;99.90
48454;DHT22;34261;55.678;12.464;2022-09-01T05:15:31;13.50;99.90
48454;DHT22;34261;55.678;12.464;2022-09-01T05:17:58;13.50;99.90
48454;DHT22;34261;55.678;12.464;2022-09-01T05:20:27;13.50;99.90
48454;DHT22;34261;55.678;12.464;2022-09-01T05:22:54;13.60;99.90
48454;DHT22;34261;55.678;12.464;2022-09-01T05:25:21;13.70;99.90
48454;DHT22;34261;55.678;12.464;2022-09-01T05:27:47;13.80;99.90
48454;DHT22;34261;55.678;12.464;2022-09-01T05:30:18;13.90;99.90
48454;DHT22;34261;55.678;12.464;2022-09-01T05:32:44;14.00;99.90
48454;DHT22;34261;55.678;12.464;2022-09-01T05:35:13;14.00;99.90
48454;DHT22;34261;55.678;12.464;2022-09-01T05:37:39;14.10;99.90
48454;DHT22;34261;55.678;12.464;2022-09-01T05:40:08;14.20;99.90
48454;DHT22;34261;55.678;12.464;2022-09-01T05:42:43;14.30;99.90
48454;DHT22;34261;55.678;12.464;2022-09-01T05:45:09;14.40;99.90
48454;DHT22;34261;55.678;12.464;2022-09-01T05:47:39;14.50;99.90
48454;DHT22;34261;55.678;12.464;2022-09-01T05:50:05;14.60;99.90
48454;DHT22;34261;55.678;12.464;2022-09-01T05:52:36;14.60;99.90
48454;DHT22;34261;55.678;12.464;2022-09-01T05:55:02;14.70;99.90
48454;DHT22;34261;55.678;12.464;2022-09-01T05:57:28;14.80;99.90
48454;DHT22;34261;55.678;12.464;2022-09-01T05:59:54;14.80;99.90
48454;DHT22;34261;55.678;12.464;2022-09-01T06:02:22;14.90;99.90
48454;DHT22;34261;55.678;12.464;2022-09-01T06:04:50;15.00;99.90
48454;DHT22;34261;55.678;12.464;2022-09-01T06:07:21;15.10;99.90
48454;DHT22;34261;55.678;12.464;2022-09-01T06:09:48;15.30;99.90
48454;DHT22;34261;55.678;12.464;2022-09-01T06:12:14;15.40;99.90
48454;DHT22;34261;55.678;12.464;2022-09-01T06:14:49;15.50;99.90
48454;DHT22;34261;55.678;12.464;2022-09-01T06:17:16;15.70;99.90
48454;DHT22;34261;55.678;12.464;2022-09-01T06:19:46;15.80;99.90
48454;DHT22;34261;55.678;12.464;2022-09-01T06:22:12;15.90;99.90
48454;DHT22;34261;55.678;12.464;2022-09-01T06:24:38;16.00;99.90
48454;DHT22;34261;55.678;12.464;2022-09-01T06:27:07;16.10;99.90
48454;DHT22;34261;55.678;12.464;2022-09-01T06:29:37;16.20;99.90
48454;DHT22;34261;55.678;12.464;2022-09-01T06:32:06;16.30;99.90
48454;DHT22;34261;55.678;12.464;2022-09-01T06:34:35;16.40;99.90
48454;DHT22;34261;55.678;12.464;2022-09-01T06:37:01;16.50;99.60
48454;DHT22;34261;55.678;12.464;2022-09-01T06:39:26;16.70;99.20
48454;DHT22;34261;55.678;12.464;2022-09-01T06:41:52;16.70;98.40
48454;DHT22;34261;55.678;12.464;2022-09-01T06:44:19;16.90;98.80
48454;DHT22;34261;55.678;12.464;2022-09-01T06:46:50;16.90;98.10
48454;DHT22;34261;55.678;12.464;2022-09-01T06:49:22;17.00;96.90
48454;DHT22;34261;55.678;12.464;2022-09-01T06:51:58;17.10;96.80
48454;DHT22;34261;55.678;12.464;2022-09-01T06:54:24;17.10;96.30
48454;DHT22;34261;55.678;12.464;2022-09-01T06:56:56;17.20;97.20
48454;DHT22;34261;55.678;12.464;2022-09-01T06:59:22;17.40;96.20
48454;DHT22;34261;55.678;12.464;2022-09-01T07:01:54;17.40;95.60
48454;DHT22;34261;55.678;12.464;2022-09-01T07:04:20;17.50;94.90
48454;DHT22;34261;55.678;12.464;2022-09-01T07:06:47;17.60;95.30
48454;DHT22;34261;55.678;12.464;2022-09-01T07:09:18;17.80;94.80
48454;DHT22;34261;55.678;12.464;2022-09-01T07:11:45;17.80;94.40
48454;DHT22;34261;55.678;12.464;2022-09-01T07:14:10;17.90;93.70
48454;DHT22;34261;55.678;12.464;2022-09-01T07:16:41;18.00;93.90
48454;DHT22;34261;55.678;12.464;2022-09-01T07:19:10;18.00;93.20
48454;DHT22;34261;55.678;12.464;2022-09-01T07:21:42;18.00;93.20
48454;DHT22;34261;55.678;12.464;2022-09-01T07:24:10;18.10;92.50
48454;DHT22;34261;55.678;12.464;2022-09-01T07:26:39;18.30;93.00
48454;DHT22;34261;55.678;12.464;2022-09-01T07:29:05;18.40;92.30
48454;DHT22;34261;55.678;12.464;2022-09-01T07:31:37;18.40;92.20
48454;DHT22;34261;55.678;12.464;2022-09-01T07:34:06;18.50;92.20
48454;DHT22;34261;55.678;12.464;2022-09-01T07:36:40;18.60;91.60
48454;DHT22;34261;55.678;12.464;2022-09-01T07:39:08;18.60;91.10
48454;DHT22;34261;55.678;12.464;2022-09-01T07:41:34;18.80;91.50
48454;DHT22;34261;55.678;12.464;2022-09-01T07:44:00;18.80;90.50
48454;DHT22;34261;55.678;12.464;2022-09-01T07:46:28;18.80;90.70
48454;DHT22;34261;55.678;12.464;2022-09-01T07:48:57;18.80;90.40
48454;DHT22;34261;55.678;12.464;2022-09-01T07:51:24;18.90;90.10
48454;DHT22;34261;55.678;12.464;2022-09-01T07:53:51;19.00;90.00
48454;DHT22;34261;55.678;12.464;2022-09-01T07:56:20;19.10;89.50
48454;DHT22;34261;55.678;12.464;2022-09-01T07:58:48;19.10;90.00
48454;DHT22;34261;55.678;12.464;2022-09-01T08:01:21;19.20;89.00
48454;DHT22;34261;55.678;12.464;2022-09-01T08:03:53;19.30;88.00
48454;DHT22;34261;55.678;12.464;2022-09-01T08:06:21;19.40;87.90
48454;DHT22;34261;55.678;12.464;2022-09-01T08:08:49;19.50;87.40
48454;DHT22;34261;55.678;12.464;2022-09-01T08:11:21;19.60;86.80
48454;DHT22;34261;55.678;12.464;2022-09-01T08:13:49;19.60;86.90
48454;DHT22;34261;55.678;12.464;2022-09-01T08:16:15;19.60;85.40
48454;DHT22;34261;55.678;12.464;2022-09-01T08:18:42;19.90;87.50
48454;DHT22;34261;55.678;12.464;2022-09-01T08:21:11;20.00;86.00
48454;DHT22;34261;55.678;12.464;2022-09-01T08:23:37;20.00;85.30
48454;DHT22;34261;55.678;12.464;2022-09-01T08:26:09;20.20;86.10
48454;DHT22;34261;55.678;12.464;2022-09-01T08:28:35;20.30;84.50
48454;DHT22;34261;55.678;12.464;2022-09-01T08:31:06;20.30;84.70
48454;DHT22;34261;55.678;12.464;2022-09-01T08:33:32;20.40;84.00
48454;DHT22;34261;55.678;12.464;2022-09-01T08:36:00;20.40;83.90
48454;DHT22;34261;55.678;12.464;2022-09-01T08:38:26;20.40;83.90
48454;DHT22;34261;55.678;12.464;2022-09-01T08:40:54;20.50;82.90
48454;DHT22;34261;55.678;12.464;2022-09-01T08:43:32;20.50;84.10
48454;DHT22;34261;55.678;12.464;2022-09-01T08:46:06;20.60;83.70
48454;DHT22;34261;55.678;12.464;2022-09-01T08:48:40;20.60;81.50
48454;DHT22;34261;55.678;12.464;2022-09-01T08:52:05;20.70;83.00
48454;DHT22;34261;55.678;12.464;2022-09-01T08:56:40;21.10;81.90
48454;DHT22;34261;55.678;12.464;2022-09-01T08:59:10;21.30;81.60
48454;DHT22;34261;55.678;12.464;2022-09-01T09:01:41;21.40;81.00
48454;DHT22;34261;55.678;12.464;2022-09-01T09:04:37;21.40;81.50
48454;DHT22;34261;55.678;12.464;2022-09-01T09:09:52;21.50;79.50
48454;DHT22;34261;55.678;12.464;2022-09-01T09:15:23;21.90;80.30
48454;DHT22;34261;55.678;12.464;2022-09-01T09:21:05;22.10;77.40
48454;DHT22;34261;55.678;12.464;2022-09-01T09:23:37;22.30;78.10
48454;DHT22;34261;55.678;12.464;2022-09-01T09:26:04;22.40;77.70
48454;DHT22;34261;55.678;12.464;2022-09-01T09:28:30;22.40;77.30
48454;DHT22;34261;55.678;12.464;2022-09-01T09:31:28;22.50;76.70
48454;DHT22;34261;55.678;12.464;2022-09-01T09:33:55;22.60;76.20
48454;DHT22;34261;55.678;12.464;2022-09-01T09:36:29;22.70;76.10
48454;DHT22;34261;55.678;12.464;2022-09-01T09:39:05;22.80;76.10
48454;DHT22;34261;55.678;12.464;2022-09-01T09:41:32;22.90;77.70
48454;DHT22;34261;55.678;12.464;2022-09-01T09:46:49;23.20;77.50
48454;DHT22;34261;55.678;12.464;2022-09-01T09:49:31;23.40;77.00
48454;DHT22;34261;55.678;12.464;2022-09-01T09:54:39;23.60;77.20
48454;DHT22;34261;55.678;12.464;2022-09-01T09:59:56;23.70;75.10
48454;DHT22;34261;55.678;12.464;2022-09-01T10:04:58;24.00;76.30
48454;DHT22;34261;55.678;12.464;2022-09-01T10:07:36;23.90;74.30
48454;DHT22;34261;55.678;12.464;2022-09-01T10:10:23;23.90;75.30
48454;DHT22;34261;55.678;12.464;2022-09-01T10:12:53;24.00;73.70
48454;DHT22;34261;55.678;12.464;2022-09-01T10:15:22;24.20;72.10
48454;DHT22;34261;55.678;12.464;2022-09-01T10:17:52;24.20;72.00
48454;DHT22;34261;55.678;12.464;2022-09-01T10:20:24;24.20;73.00
48454;DHT22;34261;55.678;12.464;2022-09-01T10:22:51;24.10;71.60
48454;DHT22;34261;55.678;12.464;2022-09-01T10:25:26;24.20;71.10
48454;DHT22;34261;55.678;12.464;2022-09-01T10:28:01;24.00;71.60
48454;DHT22;34261;55.678;12.464;2022-09-01T10:30:31;24.10;75.70
48454;DHT22;34261;55.678;12.464;2022-09-01T10:33:02;24.50;75.40
48454;DHT22;34261;55.678;12.464;2022-09-01T10:35:39;24.70;70.60
48454;DHT22;34261;55.678;12.464;2022-09-01T10:38:14;24.70;71.30
48454;DHT22;34261;55.678;12.464;2022-09-01T10:40:49;24.80;70.70
48454;DHT22;34261;55.678;12.464;2022-09-01T10:43:46;25.10;68.30
48454;DHT22;34261;55.678;12.464;2022-09-01T10:52:00;25.30;71.10
48454;DHT22;34261;55.678;12.464;2022-09-01T10:58:07;25.70;69.00
48454;DHT22;34261;55.678;12.464;2022-09-01T11:00:45;25.90;68.00
48454;DHT22;34261;55.678;12.464;2022-09-01T11:03:36;25.90;68.20
48454;DHT22;34261;55.678;12.464;2022-09-01T14:38:36;24.60;70.10
48454;DHT22;34261;55.678;12.464;2022-09-01T14:41:01;24.60;70.90
48454;DHT22;34261;55.678;12.464;2022-09-01T14:43:28;24.70;70.60
48454;DHT22;34261;55.678;12.464;2022-09-01T14:46:04;25.10;71.50
48454;DHT22;34261;55.678;12.464;2022-09-01T14:48:32;25.00;69.80
48454;DHT22;34261;55.678;12.464;2022-09-01T14:50:58;25.20;69.30
48454;DHT22;34261;55.678;12.464;2022-09-01T14:53:27;25.40;71.20
48454;DHT22;34261;55.678;12.464;2022-09-01T14:55:55;25.10;71.60
48454;DHT22;34261;55.678;12.464;2022-09-01T14:58:21;25.40;71.30
48454;DHT22;34261;55.678;12.464;2022-09-01T15:00:47;25.50;69.10
48454;DHT22;34261;55.678;12.464;2022-09-01T15:03:13;25.60;69.80
48454;DHT22;34261;55.678;12.464;2022-09-01T15:05:38;25.80;69.70
48454;DHT22;34261;55.678;12.464;2022-09-01T15:08:05;25.90;69.30
48454;DHT22;34261;55.678;12.464;2022-09-01T15:10:31;26.10;70.40
48454;DHT22;34261;55.678;12.464;2022-09-01T15:12:59;26.10;68.30
48454;DHT22;34261;55.678;12.464;2022-09-01T15:15:29;26.10;67.90
48454;DHT22;34261;55.678;12.464;2022-09-01T15:17:55;26.10;69.70
48454;DHT22;34261;55.678;12.464;2022-09-01T15:20:22;26.10;68.70
48454;DHT22;34261;55.678;12.464;2022-09-01T15:23:07;26.20;69.10
48454;DHT22;34261;55.678;12.464;2022-09-01T15:25:34;26.20;69.10
48454;DHT22;34261;55.678;12.464;2022-09-01T15:28:03;26.20;68.10
48454;DHT22;34261;55.678;12.464;2022-09-01T15:30:31;26.20;68.50
48454;DHT22;34261;55.678;12.464;2022-09-01T15:32:57;26.20;69.20
48454;DHT22;34261;55.678;12.464;2022-09-01T15:35:28;25.90;67.80
48454;DHT22;34261;55.678;12.464;2022-09-01T15:37:53;25.80;68.20
48454;DHT22;34261;55.678;12.464;2022-09-01T15:40:23;25.60;68.60
48454;DHT22;34261;55.678;12.464;2022-09-01T15:42:49;25.20;69.20
48454;DHT22;34261;55.678;12.464;2022-09-01T15:45:18;24.70;69.30
48454;DHT22;34261;55.678;12.464;2022-09-01T15:47:45;24.40;70.00
48454;DHT22;34261;55.678;12.464;2022-09-01T15:50:15;24.20;70.80
48454;DHT22;34261;55.678;12.464;2022-09-01T15:53:01;23.90;71.00
48454;DHT22;34261;55.678;12.464;2022-09-01T15:55:29;23.70;72.00
48454;DHT22;34261;55.678;12.464;2022-09-01T15:57:55;23.40;71.60
48454;DHT22;34261;55.678;12.464;2022-09-01T16:00:22;23.30;72.30
48454;DHT22;34261;55.678;12.464;2022-09-01T16:02:49;23.20;72.20
48454;DHT22;34261;55.678;12.464;2022-09-01T16:05:26;23.00;73.10
48454;DHT22;34261;55.678;12.464;2022-09-01T16:07:53;22.90;73.40
48454;DHT22;34261;55.678;12.464;2022-09-01T16:10:19;22.80;74.50
48454;DHT22;34261;55.678;12.464;2022-09-01T16:12:45;22.90;73.00
48454;DHT22;34261;55.678;12.464;2022-09-01T16:15:18;22.90;75.20
48454;DHT22;34261;55.678;12.464;2022-09-01T16:23:12;22.80;75.80
48454;DHT22;34261;55.678;12.464;2022-09-01T16:25:38;22.70;76.40
48454;DHT22;34261;55.678;12.464;2022-09-01T16:30:48;22.50;76.50
48454;DHT22;34261;55.678;12.464;2022-09-01T16:33:15;22.40;77.80
48454;DHT22;34261;55.678;12.464;2022-09-01T16:36:04;22.40;78.00
48454;DHT22;34261;55.678;12.464;2022-09-01T16:43:54;22.20;75.90
48454;DHT22;34261;55.678;12.464;2022-09-01T16:52:39;21.80;79.60
48454;DHT22;34261;55.678;12.464;2022-09-01T16:58:08;21.70;81.00
48454;DHT22;34261;55.678;12.464;2022-09-01T17:04:06;21.60;81.90
48454;DHT22;34261;55.678;12.464;2022-09-01T17:09:19;21.40;82.50
48454;DHT22;34261;55.678;12.464;2022-09-01T17:11:50;21.40;83.20
48454;DHT22;34261;55.678;12.464;2022-09-01T17:14:25;21.30;83.10
48454;DHT22;34261;55.678;12.464;2022-09-01T17:19:37;21.20;84.30
